Time;durP1;ratioP1;P1;durP2;ratioP2;P2;SDS_P1;SDS_P2;PMS_P1;PMS_P2;Temp;Humidity;BMP_temperature;BMP_pressure;BME280_temperature;BME280_humidity;BME280_pressure;Samples;Min_cycle;Max_cycle;Signal;HPM_P1;HPM_P2
2023/02/10 00:01:40;;;;;;;14.13;6.70;;;1.00;55.70;;;-4.19;87.66;97248.56;4975489;28;20053;-50
2023/02/10 00:04:14;;;;;;;13.40;7.35;;;1.00;56.30;;;-4.24;87.23;97247.31;4991912;28;20022;-51
2023/02/10 00:06:40;;;;;;;12.05;6.30;;;0.90;55.70;;;-4.29;87.21;97250.31;4975424;28;20028;-51
2023/02/10 00:09:11;;;;;;;12.55;6.07;;;0.90;55.70;;;-4.32;87.57;97242.78;4972004;28;20095;-50
2023/02/10 00:14:21;;;;;;;14.38;7.10;;;0.90;55.70;;;-4.39;87.80;97253.81;4992528;28;20033;-53
2023/02/10 00:16:53;;;;;;;10.90;6.10;;;0.80;55.70;;;-4.43;88.02;97256.69;4991818;28;20034;-47
2023/02/10 00:19:24;;;;;;;12.43;6.05;;;0.80;55.80;;;-4.49;87.93;97248.56;4971455;28;20037;-51
2023/02/10 00:21:52;;;;;;;13.00;6.45;;;0.70;55.70;;;-4.56;89.02;97247.44;4966450;28;20474;-47
2023/02/10 00:24:25;;;;;;;11.95;6.78;;;0.70;55.70;;;-4.62;89.20;97253.97;4991796;28;20021;-52
2023/02/10 00:26:59;;;;;;;13.27;6.03;;;0.70;55.80;;;-4.65;89.30;97259.44;4992888;28;20026;-51
2023/02/10 00:29:26;;;;;;;15.60;7.05;;;0.60;55.80;;;-4.70;89.52;97267.66;4972662;28;20029;-51
2023/02/10 00:31:54;;;;;;;14.43;7.28;;;0.60;55.90;;;-4.75;90.16;97266.38;4992487;28;20048;-48
2023/02/10 00:34:20;;;;;;;14.52;6.50;;;0.50;55.90;;;-4.75;89.88;97269.78;4989875;28;20112;-47
2023/02/10 00:36:50;;;;;;;12.90;5.88;;;0.50;55.90;;;-4.84;90.22;97275.75;4974823;28;20540;-47
2023/02/10 00:39:19;;;;;;;12.50;6.57;;;0.40;55.90;;;-4.90;90.80;97278.88;4990384;28;20104;-51
2023/02/10 00:41:54;;;;;;;15.20;6.72;;;0.40;56.00;;;-4.90;91.18;97273.66;4974383;28;20048;-47
2023/02/10 00:44:22;;;;;;;11.77;6.13;;;0.40;56.10;;;-4.93;91.29;97277.34;4958013;28;20504;-49
2023/02/10 00:46:48;;;;;;;14.40;6.47;;;0.30;56.10;;;-4.96;91.58;97287.97;4991091;28;20460;-48
2023/02/10 00:49:14;;;;;;;11.27;6.32;;;0.30;56.10;;;-5.00;91.31;97284.00;4991400;28;20083;-47
2023/02/10 00:51:43;;;;;;;10.60;5.93;;;0.30;56.20;;;-5.03;91.22;97279.03;4973708;28;20109;-48
2023/02/10 00:54:13;;;;;;;13.90;7.05;;;0.20;56.20;;;-5.08;91.02;97269.97;4957827;28;20013;-48
2023/02/10 00:56:40;;;;;;;10.50;6.13;;;0.20;56.30;;;-5.16;91.51;97275.81;4991775;28;20033;-47
2023/02/10 00:59:12;;;;;;;15.27;6.55;;;0.10;56.30;;;-5.22;92.60;97278.91;4969949;28;20022;-46
2023/02/10 01:01:39;;;;;;;14.20;6.18;;;0.10;56.40;;;-5.21;92.63;97278.75;4972392;28;20033;-49
2023/02/10 01:04:07;;;;;;;12.35;6.60;;;0.10;56.40;;;-5.18;92.59;97288.09;4972747;28;20026;-46
2023/02/10 01:06:37;;;;;;;13.82;6.30;;;0.10;56.50;;;-5.22;92.66;97292.72;4957523;28;20017;-47
2023/02/10 01:09:04;;;;;;;13.90;7.10;;;0.00;56.50;;;-5.26;92.82;97295.69;4973942;28;20037;-52
2023/02/10 01:11:33;;;;;;;13.18;7.00;;;0.00;56.60;;;-5.28;92.90;97293.22;4972490;28;20074;-46
2023/02/10 01:14:04;;;;;;;14.52;6.72;;;0.00;56.70;;;-5.31;93.25;97292.63;4973450;28;20087;-49
2023/02/10 01:16:33;;;;;;;10.95;5.53;;;-0.10;56.60;;;-5.35;93.45;97302.47;4963246;28;20053;-46
2023/02/10 01:19:14;;;;;;;14.43;6.22;;;-0.10;56.70;;;-5.34;93.60;97296.31;4990833;28;20079;-46
2023/02/10 01:21:43;;;;;;;16.05;6.10;;;-0.10;56.80;;;-5.40;93.25;97284.63;4972356;28;20049;-47
2023/02/10 01:24:12;;;;;;;12.13;5.85;;;-0.10;56.80;;;-5.45;93.33;97289.38;4990767;28;20065;-45
2023/02/10 01:26:41;;;;;;;15.25;7.35;;;-0.20;56.80;;;-5.51;94.22;97289.88;4974284;28;20394;-47
2023/02/10 01:29:16;;;;;;;13.68;6.75;;;-0.20;56.90;;;-5.51;94.59;97294.25;4956348;28;20472;-45
2023/02/10 01:31:48;;;;;;;14.80;7.18;;;-0.20;57.00;;;-5.51;94.76;97295.06;4990906;28;20044;-46
2023/02/10 01:34:14;;;;;;;21.02;7.35;;;-0.20;57.00;;;-5.50;94.80;97298.50;4989205;28;20022;-48
2023/02/10 01:36:40;;;;;;;14.27;6.43;;;-0.20;57.00;;;-5.49;94.87;97297.53;4969499;28;20520;-46
2023/02/10 01:39:16;;;;;;;12.18;6.25;;;-0.30;57.00;;;-5.52;94.42;97306.38;4990516;28;20069;-46
2023/02/10 01:41:45;;;;;;;13.40;5.40;;;-0.30;57.20;;;-5.55;94.41;97303.22;4973079;28;20040;-46
2023/02/10 01:44:23;;;;;;;14.75;6.80;;;-0.30;57.10;;;-5.56;94.98;97298.97;4990627;28;20025;-50
2023/02/10 01:46:49;;;;;;;16.05;7.20;;;-0.30;57.20;;;-5.59;95.27;97303.44;4971696;28;20117;-52
2023/02/10 01:49:21;;;;;;;12.15;6.18;;;-0.30;57.20;;;-5.61;95.39;97307.13;4973055;28;20434;-51
2023/02/10 01:52:03;;;;;;;14.03;6.73;;;-0.40;57.20;;;-5.59;95.06;97305.22;4972612;28;20057;-53
2023/02/10 01:54:52;;;;;;;16.23;7.47;;;-0.40;57.30;;;-5.65;95.52;97309.13;4953481;28;20274;-49
2023/02/10 01:57:20;;;;;;;14.50;6.32;;;-0.40;57.40;;;-5.62;95.75;97306.28;4969830;28;20045;-46
2023/02/10 01:59:50;;;;;;;13.82;6.20;;;-0.40;57.40;;;-5.63;95.60;97304.66;4972813;28;20412;-49
2023/02/10 02:02:22;;;;;;;15.05;6.15;;;-0.40;57.50;;;-5.66;96.08;97304.91;4990710;28;20036;-48
2023/02/10 02:05:40;;;;;;;14.27;6.55;;;-0.40;57.50;;;-5.67;96.33;97307.59;4972281;28;20404;-45
2023/02/10 02:08:30;;;;;;;12.57;6.55;;;-0.40;57.60;;;-5.65;95.69;97309.13;4938965;28;20037;-46
2023/02/10 02:11:22;;;;;;;12.63;6.80;;;-0.40;57.60;;;-5.69;95.23;97322.50;4989504;28;20083;-46
2023/02/10 02:14:10;;;;;;;29.42;7.22;;;-0.40;57.60;;;-5.71;95.65;97326.97;4969777;28;20034;-46
2023/02/10 02:17:48;;;;;;;11.93;6.20;;;-0.50;57.60;;;-5.71;95.99;97316.59;4962680;28;20044;-48
2023/02/10 02:20:59;;;;;;;12.85;6.72;;;-0.50;57.70;;;-5.77;96.34;97314.47;4981885;28;20044;-46
2023/02/10 02:24:09;;;;;;;11.95;6.30;;;-0.50;57.70;;;-5.79;96.12;97312.00;4971706;28;20127;-46
2023/02/10 02:27:57;;;;;;;12.85;6.25;;;-0.60;57.70;;;-5.82;96.82;97310.47;4938682;28;20246;-49
2023/02/10 02:31:33;;;;;;;14.20;6.75;;;-0.50;57.80;;;-5.85;96.58;97313.31;4926770;28;20369;-49
2023/02/10 02:34:24;;;;;;;15.00;6.65;;;-0.60;57.80;;;-5.87;96.90;97304.00;4972019;28;20124;-55
2023/02/10 02:37:00;;;;;;;11.35;5.90;;;-0.60;57.90;;;-5.90;96.64;97305.03;4989895;28;20117;-51
2023/02/10 02:39:29;;;;;;;14.52;6.70;;;-0.70;57.80;;;-5.92;97.03;97312.16;4971355;28;20030;-53
2023/02/10 02:42:29;;;;;;;14.82;6.85;;;-0.60;57.90;;;-5.96;97.24;97302.97;4972363;28;20025;-48
2023/02/10 02:45:49;;;;;;;15.13;6.70;;;-0.60;58.10;;;-5.94;97.94;97297.66;4971884;28;20018;-49
2023/02/10 02:48:48;;;;;;;13.18;6.50;;;-0.60;58.10;;;-5.92;98.35;97287.94;4937183;28;20129;-54
2023/02/10 02:52:11;;;;;;;13.93;6.97;;;-0.70;58.10;;;-5.88;98.24;97287.59;4972627;28;20038;-52
2023/02/10 02:55:24;;;;;;;10.90;6.17;;;-0.60;58.90;;;-5.79;98.46;97288.66;4969707;28;20030;-47
2023/02/10 02:58:27;;;;;;;12.85;6.57;;;-0.60;58.40;;;-5.81;96.96;97293.94;4989367;28;20576;-49
2023/02/10 03:01:04;;;;;;;14.55;6.97;;;-0.60;58.30;;;-5.82;97.70;97297.50;4972628;28;20040;-48
2023/02/10 03:03:34;;;;;;;11.60;6.45;;;-0.60;58.30;;;-5.81;97.74;97298.31;4976832;28;20119;-51
2023/02/10 03:06:02;;;;;;;11.23;5.95;;;-0.60;58.30;;;-5.77;97.81;97302.31;4972242;28;20477;-52
2023/02/10 03:08:41;;;;;;;15.30;6.55;;;-0.60;58.30;;;-5.75;97.32;97294.41;4972317;28;20113;-51
2023/02/10 03:11:07;;;;;;;17.75;6.57;;;-0.50;58.40;;;-5.80;97.05;97302.56;4971196;28;20017;-51
2023/02/10 03:13:42;;;;;;;14.15;6.53;;;-0.60;58.20;;;-5.81;96.93;97303.50;4971647;28;20033;-52
2023/02/10 03:16:23;;;;;;;15.82;7.15;;;-0.60;58.30;;;-5.83;96.63;97303.63;4953347;28;20052;-49
2023/02/10 03:18:49;;;;;;;17.08;6.45;;;-0.60;58.30;;;-5.88;96.88;97304.94;4971936;28;20090;-46
2023/02/10 03:21:20;;;;;;;13.27;6.53;;;-0.60;58.20;;;-5.90;97.57;97294.66;4972004;28;20113;-48
2023/02/10 03:23:46;;;;;;;13.27;7.05;;;-0.60;58.40;;;-5.89;97.49;97308.47;4955044;28;20036;-50
2023/02/10 03:26:12;;;;;;;13.98;6.47;;;-0.60;58.40;;;-5.87;97.25;97312.59;4955960;28;20396;-50
2023/02/10 03:28:41;;;;;;;13.23;7.03;;;-0.60;58.40;;;-5.86;96.64;97308.22;4980369;28;20029;-51
2023/02/10 03:31:09;;;;;;;15.93;6.60;;;-0.60;58.40;;;-5.92;96.89;97306.09;4989419;28;20104;-47
2023/02/10 03:33:37;;;;;;;13.85;7.00;;;-0.60;58.30;;;-5.92;97.11;97303.50;4982798;28;20058;-53
2023/02/10 03:36:04;;;;;;;12.52;6.50;;;-0.60;58.30;;;-5.98;97.63;97297.09;4955241;28;20048;-50
2023/02/10 03:38:33;;;;;;;13.27;6.65;;;-0.70;58.40;;;-5.96;97.67;97302.13;4988182;28;20025;-52
2023/02/10 03:41:03;;;;;;;10.65;5.80;;;-0.70;58.50;;;-5.99;96.81;97298.00;4966320;28;20021;-50
2023/02/10 03:43:32;;;;;;;11.50;5.72;;;-0.70;58.40;;;-5.99;98.20;97315.34;4971080;28;20033;-47
2023/02/10 03:46:03;;;;;;;13.52;6.80;;;-0.70;58.50;;;-5.95;98.40;97309.81;4970824;28;20041;-47
2023/02/10 03:48:31;;;;;;;12.63;6.13;;;-0.70;58.50;;;-5.95;97.88;97311.59;4971965;28;20120;-51
2023/02/10 03:51:07;;;;;;;14.15;6.10;;;-0.70;58.50;;;-5.97;97.34;97318.66;4971891;28;20026;-49
2023/02/10 03:53:36;;;;;;;12.75;6.70;;;-0.70;58.60;;;-6.02;97.55;97313.00;4973005;28;20036;-52
2023/02/10 03:56:09;;;;;;;10.80;6.05;;;-0.70;58.50;;;-6.05;97.54;97316.66;4987405;28;20021;-50
2023/02/10 03:58:44;;;;;;;;;;;-0.80;58.50;;;-6.10;97.78;97319.59;4988870;28;20032;-50
2023/02/10 04:01:17;;;;;;;12.32;6.18;;;-0.70;58.50;;;-6.12;97.93;97328.44;4967312;28;19909;-53
2023/02/10 04:03:51;;;;;;;14.15;6.03;;;-0.80;58.50;;;-6.10;97.93;97334.34;4990367;28;20027;-53
2023/02/10 04:06:20;;;;;;;19.27;7.20;;;-0.90;58.60;;;-6.10;97.84;97326.56;4975318;28;20022;-49
2023/02/10 04:08:49;;;;;;;13.05;6.07;;;-0.80;58.60;;;-6.06;98.52;97336.59;4974323;28;20044;-50
2023/02/10 04:11:16;;;;;;;11.75;6.57;;;-0.80;58.70;;;-6.03;98.25;97337.31;4975633;28;20030;-45
2023/02/10 04:13:50;;;;;;;16.80;6.22;;;-0.80;58.80;;;-6.03;97.85;97337.31;5009696;28;20569;-50
2023/02/10 04:16:21;;;;;;;14.52;6.32;;;-0.90;58.80;;;-6.07;97.55;97341.91;4999976;28;20038;-48
2023/02/10 04:18:47;;;;;;;14.05;6.50;;;-0.80;58.80;;;-6.09;97.74;97342.00;4992209;28;20112;-46
2023/02/10 04:21:20;;;;;;;9.50;5.53;;;-0.90;58.70;;;-6.06;97.98;97343.56;4973498;28;20120;-46
2023/02/10 04:23:45;;;;;;;12.02;6.05;;;-0.80;58.90;;;-6.06;97.80;97339.19;4979080;28;20034;-48
2023/02/10 04:26:29;;;;;;;10.82;6.38;;;-0.80;58.90;;;-6.06;97.21;97335.75;4964463;28;20429;-48
2023/02/10 04:28:55;;;;;;;13.90;5.85;;;-0.80;58.90;;;-6.09;96.88;97344.59;4974764;28;20503;-47
2023/02/10 04:31:23;;;;;;;11.80;6.40;;;-0.80;58.90;;;-6.10;97.13;97347.34;4997786;28;20021;-46
2023/02/10 04:33:56;;;;;;;11.77;6.13;;;-0.80;58.90;;;-6.11;97.00;97349.09;5004986;28;20091;-50
2023/02/10 04:36:22;;;;;;;14.90;5.80;;;-0.80;58.90;;;-6.10;96.86;97342.13;4964394;28;20393;-46
2023/02/10 04:38:48;;;;;;;10.73;5.35;;;-0.90;58.80;;;-6.14;96.42;97346.75;5001240;28;20040;-48
2023/02/10 04:41:17;;;;;;;10.35;5.95;;;-0.90;58.80;;;-6.16;96.54;97347.78;4977116;28;20061;-46
2023/02/10 04:43:43;;;;;;;11.18;5.57;;;-0.90;58.90;;;-6.21;95.94;97342.94;4980103;28;20556;-48
2023/02/10 04:46:12;;;;;;;13.15;6.25;;;-0.90;58.80;;;-6.28;96.73;97346.97;4992881;28;20033;-47
2023/02/10 04:48:44;;;;;;;10.10;5.28;;;-1.00;58.80;;;-6.31;97.13;97348.00;4970468;28;20527;-49
2023/02/10 04:51:12;;;;;;;12.57;5.60;;;-1.00;58.80;;;-6.32;96.93;97348.13;4972813;28;20538;-48
2023/02/10 04:53:44;;;;;;;12.30;5.65;;;-1.00;58.80;;;-6.33;97.57;97351.66;4993445;28;20033;-49
2023/02/10 04:56:16;;;;;;;10.90;5.82;;;-1.00;58.90;;;-6.33;97.61;97344.72;5000277;28;20044;-51
2023/02/10 04:58:47;;;;;;;10.52;5.88;;;-1.00;58.90;;;-6.34;97.06;97348.25;4990892;28;20056;-47
2023/02/10 05:01:13;;;;;;;10.30;5.28;;;-1.00;59.00;;;-6.33;97.45;97344.72;4993442;28;20026;-50
2023/02/10 05:03:48;;;;;;;11.80;5.22;;;-1.10;59.00;;;-6.35;96.68;97344.00;4974875;28;20029;-48
2023/02/10 05:06:20;;;;;;;10.85;5.75;;;-1.10;59.00;;;-6.38;96.74;97338.22;4986522;28;20099;-45
2023/02/10 05:08:49;;;;;;;12.13;5.95;;;-1.10;59.00;;;-6.42;96.35;97336.81;4985472;28;20040;-47
2023/02/10 05:11:16;;;;;;;12.02;5.43;;;-1.10;59.00;;;-6.47;96.63;97337.16;4970546;28;20030;-51
2023/02/10 05:13:43;;;;;;;11.50;5.82;;;-1.10;59.00;;;-6.50;96.59;97339.16;4961229;28;20493;-51
2023/02/10 05:16:12;;;;;;;12.13;6.18;;;-1.10;59.00;;;-6.56;96.95;97340.44;4987607;28;20022;-53
2023/02/10 05:18:45;;;;;;;13.00;5.63;;;-1.20;59.00;;;-6.58;97.79;97335.38;4990410;28;20033;-48
2023/02/10 05:21:14;;;;;;;16.10;6.30;;;-1.20;59.00;;;-6.58;97.77;97337.13;4957279;28;20021;-49
2023/02/10 05:23:41;;;;;;;11.30;5.30;;;-1.20;59.10;;;-6.60;98.07;97345.03;4934090;28;20480;-50
2023/02/10 05:26:16;;;;;;;12.98;5.95;;;-1.20;59.10;;;-6.60;98.56;97339.84;4972414;28;20113;-52
2023/02/10 05:28:44;;;;;;;12.23;4.90;;;-1.30;59.10;;;-6.60;98.56;97339.84;4971661;28;20053;-53
2023/02/10 05:31:10;;;;;;;11.55;6.00;;;-1.30;59.10;;;-6.58;98.15;97330.19;4990377;28;20087;-54
2023/02/10 05:33:36;;;;;;;10.77;5.93;;;-1.20;59.20;;;-6.60;97.88;97339.03;4971673;28;20034;-52
2023/02/10 05:36:03;;;;;;;13.23;5.68;;;-1.30;59.10;;;-6.63;98.55;97340.06;4966745;28;20065;-46
2023/02/10 05:38:29;;;;;;;13.43;6.43;;;-1.30;59.20;;;-6.61;98.58;97340.78;4983527;28;20025;-47
2023/02/10 05:40:55;;;;;;;12.13;6.63;;;-1.30;59.20;;;-6.59;99.06;97343.25;4989642;28;20446;-48
2023/02/10 05:43:27;;;;;;;12.40;6.35;;;-1.30;59.30;;;-6.57;99.07;97349.16;4971923;28;20096;-48
2023/02/10 05:45:53;;;;;;;15.40;6.70;;;-1.30;59.40;;;-6.55;98.95;97355.03;4972179;28;21037;-54
2023/02/10 05:48:19;;;;;;;16.25;6.18;;;-1.30;59.40;;;-6.54;98.99;97359.31;4989694;28;20304;-46
2023/02/10 05:50:51;;;;;;;15.93;6.55;;;-1.30;59.40;;;-6.52;98.74;97362.59;4972431;28;20068;-52
2023/02/10 05:53:17;;;;;;;21.20;7.50;;;-1.30;59.50;;;-6.50;98.31;97365.91;4955068;28;20439;-51
2023/02/10 05:55:47;;;;;;;15.77;7.35;;;-1.30;59.40;;;-6.54;98.39;97369.69;4989940;28;20504;-50
2023/02/10 05:58:15;;;;;;;15.50;6.95;;;-1.30;59.50;;;-6.55;98.30;97371.44;4968937;28;20119;-48
2023/02/10 06:00:41;;;;;;;12.50;6.22;;;-1.30;59.40;;;-6.60;98.06;97370.13;4989662;28;20113;-50
2023/02/10 06:03:10;;;;;;;16.23;7.28;;;-1.30;59.40;;;-6.61;98.46;97368.47;4987919;28;20101;-48
2023/02/10 06:05:39;;;;;;;19.90;6.82;;;-1.30;59.40;;;-6.63;98.08;97363.41;4988769;28;20030;-50
2023/02/10 06:08:05;;;;;;;14.38;6.80;;;-1.30;59.40;;;-6.65;99.21;97372.22;4972099;28;20030;-49
2023/02/10 06:10:34;;;;;;;15.23;6.90;;;-1.30;59.40;;;-6.66;98.89;97368.00;4989038;28;20021;-54
2023/02/10 06:13:03;;;;;;;13.95;6.00;;;-1.30;59.50;;;-6.64;98.81;97373.88;4971589;28;20029;-52
2023/02/10 06:15:29;;;;;;;16.05;7.15;;;-1.30;59.50;;;-6.66;99.37;97370.59;4968777;28;20030;-46
2023/02/10 06:17:54;;;;;;;12.10;6.28;;;-1.30;59.50;;;-6.62;99.48;97379.78;4988858;28;20029;-46
2023/02/10 06:20:20;;;;;;;11.77;6.05;;;-1.30;60.20;;;-6.59;99.03;97387.31;4971811;28;20048;-51
2023/02/10 06:22:52;;;;;;;13.85;6.32;;;-1.40;59.60;;;-6.63;99.11;97385.91;4969840;28;20036;-46
2023/02/10 06:25:18;;;;;;;12.87;6.10;;;-1.30;59.60;;;-6.64;99.05;97386.84;4989432;28;20033;-51
2023/02/10 06:27:47;;;;;;;14.50;7.18;;;-1.30;59.60;;;-6.67;98.63;97392.28;4988673;28;20033;-49
2023/02/10 06:30:13;;;;;;;19.15;6.40;;;-1.40;59.60;;;-6.73;98.04;97392.72;4988510;28;20026;-47
2023/02/10 06:32:48;;;;;;;22.27;7.07;;;-1.40;59.50;;;-6.78;98.63;97391.28;4988582;28;20519;-46
2023/02/10 06:35:20;;;;;;;15.32;6.32;;;-1.40;59.60;;;-6.81;98.95;97394.09;4987553;28;20049;-52
2023/02/10 06:37:46;;;;;;;12.87;5.83;;;-1.40;59.60;;;-6.80;98.97;97398.34;4971704;28;20411;-50
2023/02/10 06:40:18;;;;;;;10.80;5.90;;;-1.40;59.60;;;-6.82;98.63;97400.22;4988169;28;20030;-51
2023/02/10 06:42:43;;;;;;;13.10;5.60;;;-1.40;59.70;;;-6.83;98.95;97401.16;4988707;28;20432;-50
2023/02/10 06:45:09;;;;;;;13.75;5.50;;;-1.40;59.60;;;-6.84;99.35;97404.69;4988369;28;20109;-54
2023/02/10 06:47:38;;;;;;;10.45;5.63;;;-1.40;59.70;;;-6.80;100.00;97413.91;4970981;28;20030;-47
2023/02/10 06:50:06;;;;;;;10.50;5.40;;;-1.40;59.80;;;-6.72;100.00;97415.94;4988532;28;20033;-48
2023/02/10 06:52:37;;;;;;;11.77;5.35;;;-1.40;59.80;;;-6.66;100.00;97418.06;4987927;28;20021;-53
2023/02/10 06:55:07;;;;;;;13.32;5.55;;;-1.30;59.90;;;-6.63;99.70;97417.84;4908061;28;21937;-49
2023/02/10 06:57:35;;;;;;;10.02;5.30;;;-1.30;59.90;;;-6.60;99.21;97416.81;4943335;28;20698;-50
2023/02/10 07:00:09;;;;;;;12.13;5.18;;;-1.30;59.90;;;-6.58;98.66;97423.53;4969321;28;20025;-52
2023/02/10 07:02:36;;;;;;;11.90;5.15;;;-1.30;60.20;;;-6.58;98.42;97410.56;4916214;29;20054;-53
2023/02/10 07:05:07;;;;;;;14.50;5.13;;;-1.20;59.80;;;-6.60;98.20;97409.84;4951088;28;20026;-48
2023/02/10 07:07:37;;;;;;;7.68;4.22;;;-1.20;59.80;;;-6.60;98.41;97407.25;4952784;28;20022;-54
2023/02/10 07:10:05;;;;;;;10.02;4.93;;;-1.20;59.80;;;-6.59;98.66;97424.44;4950765;28;20141;-52
2023/02/10 07:12:34;;;;;;;8.18;4.15;;;-1.10;59.80;;;-6.53;98.30;97418.81;4969038;28;20026;-46
2023/02/10 07:15:00;;;;;;;13.27;4.82;;;-1.10;59.80;;;-6.49;98.72;97418.59;4969200;28;20029;-50
2023/02/10 07:17:27;;;;;;;14.85;5.13;;;-1.10;59.80;;;-6.42;98.94;97423.22;4941379;28;20042;-46
2023/02/10 07:19:52;;;;;;;9.05;4.53;;;-1.00;59.80;;;-6.33;99.33;97426.88;4951573;28;20429;-50
2023/02/10 07:22:20;;;;;;;7.45;4.55;;;-0.90;59.90;;;-6.24;99.53;97423.59;4967762;28;20026;-47
2023/02/10 07:24:46;;;;;;;10.30;4.50;;;-0.90;59.90;;;-6.14;99.43;97421.97;4966395;28;20041;-50
2023/02/10 07:27:15;;;;;;;17.55;5.43;;;-0.80;60.00;;;-6.02;99.41;97421.97;4969373;28;20034;-49
2023/02/10 07:29:44;;;;;;;12.80;4.63;;;-0.70;60.00;;;-5.90;99.02;97424.44;4950832;28;20477;-52
2023/02/10 07:32:13;;;;;;;8.93;4.70;;;-0.60;60.10;;;-5.79;98.60;97423.63;4969279;28;20444;-50
2023/02/10 07:34:42;;;;;;;9.57;4.82;;;-0.50;60.10;;;-5.68;98.37;97420.19;4967088;28;20125;-51
2023/02/10 07:37:10;;;;;;;8.40;4.45;;;-0.40;60.10;;;-5.57;97.58;97421.97;4972597;28;20030;-50
2023/02/10 07:39:36;;;;;;;7.82;4.30;;;-0.30;60.00;;;-5.48;97.13;97418.69;4935247;28;20646;-49
2023/02/10 07:42:03;;;;;;;10.15;4.57;;;-0.20;60.00;;;-5.33;96.83;97424.41;4966942;28;20436;-49
2023/02/10 07:44:28;;;;;;;8.70;5.07;;;0.00;60.00;;;-5.14;96.70;97424.63;4970748;28;20022;-49
2023/02/10 07:46:54;;;;;;;9.15;4.65;;;0.20;60.00;;;-4.91;96.17;97430.59;4971619;28;20508;-47
2023/02/10 07:49:20;;;;;;;10.48;4.95;;;0.50;59.90;;;-4.57;97.05;97428.69;4972863;28;20033;-48
2023/02/10 07:51:49;;;;;;;9.77;5.18;;;0.80;59.90;;;-4.25;95.04;97436.47;4910834;28;20079;-54
2023/02/10 07:54:18;;;;;;;12.48;4.63;;;1.30;60.60;;;-3.93;94.21;97437.34;4949889;28;20463;-51
2023/02/10 07:56:50;;;;;;;7.65;4.60;;;1.50;59.70;;;-3.72;92.91;97432.94;4939251;28;20035;-54
2023/02/10 07:59:15;;;;;;;10.60;4.63;;;1.80;59.60;;;-3.56;92.08;97438.47;4953886;28;20034;-51
2023/02/10 08:01:42;;;;;;;5.93;3.92;;;2.00;59.40;;;-3.38;91.51;97436.09;4971553;28;20028;-51
2023/02/10 08:04:12;;;;;;;7.72;4.47;;;2.10;59.20;;;-3.21;89.83;97444.22;4970398;28;20028;-48
2023/02/10 08:06:44;;;;;;;8.07;4.82;;;2.30;59.00;;;-3.16;85.79;97447.28;4971200;28;20558;-52
2023/02/10 08:09:17;;;;;;;9.02;4.85;;;2.50;58.80;;;-3.02;85.25;97445.09;4972371;28;20057;-54
2023/02/10 08:11:45;;;;;;;9.88;4.40;;;2.60;58.60;;;-2.85;83.28;97442.78;4898462;28;21208;-51
2023/02/10 08:14:11;;;;;;;8.00;4.10;;;2.70;58.40;;;-2.75;83.11;97441.03;4878776;28;88731;-52
2023/02/10 08:16:37;;;;;;;9.48;4.50;;;2.90;58.30;;;-2.62;83.85;97443.38;4972888;28;20038;-52
2023/02/10 08:19:03;;;;;;;7.25;4.10;;;3.10;58.10;;;-2.38;84.47;97446.41;4957659;28;20045;-51
2023/02/10 08:21:29;;;;;;;15.50;7.82;;;3.40;57.90;;;-2.07;83.43;97442.78;4988517;28;20383;-49
2023/02/10 08:23:56;;;;;;;14.65;7.07;;;3.70;57.60;;;-1.87;80.75;97447.03;4974961;28;20547;-46
2023/02/10 08:26:24;;;;;;;8.23;4.25;;;4.10;57.30;;;-1.70;74.66;97443.66;4968045;28;20046;-48
2023/02/10 08:28:54;;;;;;;7.10;4.07;;;4.40;56.90;;;-1.35;76.29;97442.16;4946692;28;20041;-50
2023/02/10 08:31:23;;;;;;;7.70;4.30;;;4.70;56.40;;;-1.06;74.63;97446.44;4960859;28;20030;-50
2023/02/10 08:33:49;;;;;;;8.88;4.35;;;5.10;56.00;;;-0.77;73.06;97449.69;4977238;23;20429;-51
2023/02/10 08:36:21;;;;;;;9.27;4.32;;;5.50;55.70;;;-0.52;70.40;97444.72;5012665;28;20162;-50
2023/02/10 08:38:51;;;;;;;;;;;5.80;55.00;;;-0.40;68.29;97451.38;5025139;28;20364;-49
2023/02/10 08:41:21;;;;;;;7.15;4.25;;;6.20;55.00;;;-0.13;67.65;97457.47;4993511;28;19996;-49
2023/02/10 08:43:46;;;;;;;7.05;4.00;;;6.50;54.50;;;0.09;66.52;97451.75;4995613;28;20493;-52
2023/02/10 08:46:15;;;;;;;6.60;3.78;;;6.90;54.00;;;0.32;65.19;97453.91;4990052;28;20037;-48
2023/02/10 08:48:44;;;;;;;7.25;4.30;;;7.20;53.50;;;0.59;65.03;97453.69;5010298;28;20033;-54
2023/02/10 08:51:19;;;;;;;7.18;4.03;;;7.60;53.00;;;0.81;63.97;97454.94;4993284;28;20025;-49
2023/02/10 08:53:45;;;;;;;7.55;3.92;;;7.90;52.50;;;1.03;62.14;97452.75;5009816;28;20025;-48
2023/02/10 08:56:17;;;;;;;10.57;4.00;;;8.30;52.30;;;1.14;61.60;97461.16;5009149;28;20021;-49
2023/02/10 08:58:45;;;;;;;6.38;4.30;;;8.50;51.50;;;1.34;59.86;97461.69;4976487;28;20116;-49
2023/02/10 09:01:26;;;;;;;7.15;4.20;;;8.80;51.20;;;1.58;60.22;97460.13;5009569;28;20024;-50
2023/02/10 09:03:54;;;;;;;7.50;4.78;;;9.10;50.50;;;1.68;59.33;97449.44;4991566;28;20021;-50
2023/02/10 09:06:41;;;;;;;7.45;4.50;;;9.40;50.20;;;1.79;59.12;97455.22;5003935;28;20191;-49
2023/02/10 09:09:11;;;;;;;9.13;5.00;;;9.60;49.50;;;1.98;59.71;97448.00;5005751;28;20025;-54
2023/02/10 09:11:56;;;;;;;10.25;5.00;;;9.90;49.40;;;2.28;57.51;97449.09;4991600;28;20025;-50
2023/02/10 09:14:23;;;;;;;7.78;4.40;;;10.20;48.70;;;2.51;56.66;97451.88;5009025;28;20052;-52
2023/02/10 09:16:52;;;;;;;6.72;4.50;;;10.40;48.60;;;2.71;58.32;97457.56;4984941;28;20063;-52
2023/02/10 09:19:22;;;;;;;8.05;4.95;;;10.60;48.30;;;2.95;56.00;97464.56;5007669;28;20029;-50
2023/02/10 09:21:50;;;;;;;9.55;4.68;;;10.90;47.90;;;3.17;55.73;97460.38;4991544;28;20029;-51
2023/02/10 09:24:17;;;;;;;9.80;5.50;;;11.20;47.60;;;3.49;55.25;97456.72;4977999;28;20018;-51
2023/02/10 09:26:44;;;;;;;8.30;4.53;;;11.40;47.00;;;3.74;54.77;97457.41;5000756;28;20036;-51
2023/02/10 09:29:13;;;;;;;9.43;4.70;;;11.70;46.70;;;4.02;52.94;97456.88;4991754;28;20136;-55
2023/02/10 09:31:48;;;;;;;6.15;4.30;;;12.00;46.20;;;4.05;51.47;97459.97;4990806;28;20028;-53
2023/02/10 09:34:29;;;;;;;9.93;4.93;;;12.30;45.60;;;4.17;52.98;97461.19;5008583;28;20533;-52
2023/02/10 09:36:57;;;;;;;8.80;4.85;;;12.50;45.00;;;4.25;50.58;97454.19;5009689;28;20126;-56
2023/02/10 09:39:25;;;;;;;7.38;4.45;;;12.70;44.80;;;4.39;51.06;97458.69;4990447;28;20101;-54
2023/02/10 09:42:27;;;;;;;8.68;4.68;;;12.70;44.20;;;4.68;50.53;97463.16;5008852;28;20025;-56
2023/02/10 09:45:09;;;;;;;10.30;4.60;;;12.90;43.40;;;4.92;50.87;97456.81;4980276;28;20030;-55
2023/02/10 09:48:21;;;;;;;7.03;4.57;;;13.10;43.50;;;5.21;49.34;97466.53;4989474;28;20040;-52
2023/02/10 09:51:17;;;;;;;7.25;4.80;;;13.30;43.10;;;5.57;49.81;97465.69;4998811;28;20049;-54
2023/02/10 09:53:43;;;;;;;10.65;5.45;;;13.40;42.90;;;5.63;48.10;97472.06;4975135;28;20365;-56
2023/02/10 09:56:21;;;;;;;9.10;5.63;;;13.50;42.80;;;5.64;48.48;97474.56;5009978;28;20067;-55
2023/02/10 09:58:57;;;;;;;7.15;5.18;;;13.70;42.20;;;5.37;48.20;97469.97;4970319;28;20464;-57
2023/02/10 10:01:50;;;;;;;7.20;5.15;;;13.70;41.70;;;5.68;47.86;97467.88;4975199;28;20395;-57
2023/02/10 10:04:20;;;;;;;7.90;5.13;;;13.80;41.50;;;5.66;47.49;97466.41;4989705;28;20827;-56
2023/02/10 10:07:26;;;;;;;7.05;4.97;;;13.90;41.60;;;5.86;45.83;97472.75;4989615;28;20029;-55
2023/02/10 10:10:45;;;;;;;7.50;5.05;;;14.00;41.10;;;6.21;46.28;97479.00;4974072;28;20070;-58
2023/02/10 10:13:27;;;;;;;8.88;5.47;;;14.30;41.00;;;6.16;45.70;97473.44;4982817;28;20045;-58
2023/02/10 10:16:36;;;;;;;9.23;5.15;;;14.50;40.50;;;6.32;45.16;97463.59;4979523;28;20108;-57
2023/02/10 10:19:18;;;;;;;9.23;5.75;;;14.70;40.10;;;6.36;45.15;97464.84;4989406;28;20055;-55
2023/02/10 10:22:25;;;;;;;11.55;6.32;;;14.90;40.00;;;6.49;44.63;97464.97;4986656;28;20063;-59
2023/02/10 10:25:50;;;;;;;9.43;6.35;;;15.10;39.60;;;6.65;44.63;97463.84;4988601;28;20026;-59
2023/02/10 10:28:57;;;;;;;11.45;6.63;;;15.30;39.10;;;6.93;44.70;97461.16;5001716;28;20057;-58
2023/02/10 10:31:39;;;;;;;9.32;6.50;;;15.50;38.90;;;7.14;44.12;97458.41;4973296;28;20061;-55
2023/02/10 10:34:19;;;;;;;8.93;6.03;;;15.70;38.40;;;7.39;44.10;97449.94;4975324;28;20037;-57
2023/02/10 10:36:52;;;;;;;12.05;6.50;;;16.00;38.90;;;7.62;43.83;97452.28;4992609;28;20041;-56
2023/02/10 10:39:45;;;;;;;9.48;7.00;;;16.20;37.90;;;7.69;43.79;97447.00;4977383;28;20022;-55
2023/02/10 10:42:52;;;;;;;9.88;7.03;;;16.30;37.30;;;8.09;43.81;97454.00;4989698;28;20029;-53
2023/02/10 10:45:46;;;;;;;11.85;7.03;;;16.50;37.20;;;8.37;42.71;97445.03;4979551;28;20025;-58
2023/02/10 10:48:26;;;;;;;10.23;7.55;;;16.80;36.90;;;8.57;41.95;97432.56;4990357;28;20037;-53
2023/02/10 10:51:03;;;;;;;10.55;7.45;;;17.10;36.60;;;8.66;41.72;97424.38;5001390;28;20021;-55